Bluefield, WV

05:55 EST le 30 janvier 2015 (GMT -0500)
Mercer County | Change Station
CLOSE
Current Station
Aéroport
Location: Bluefield,
Altitude: 2858 ft
Stations météo à proximité

Alt. 2858 ft 37.30 °N, 81.21 °W | Updated 1 hour ago

Couvert
Couvert
29 ° F
Paraît 18 ° F
N
14
Vent Variable Vent de ONO
Gusts 23 mph

Aujourd'hui
Haut(e) -- | Bas -- ° F
--% Risque de précip.
Hier
Haut(e) -- | Bas -- ° F
Precip. -- pouce
7:29 AM 5:46 PM
Lune gibbeuse croissante, 82% visible
Pression 30.05 pouce
Visibilité 4.0 Miles terrestres
Nuages Nuageux 1000 ft
Nuageux 1400 ft
Couvert 2600 ft
Refroidissement éolien 18 ° F
Point de rosée 23 ° F
Humidité 78%
Précipitations 0.00 pouce
Profondeur de la couche neigeuse Non disponible.
UV 0 sur 12
Pollen .30 sur 12
Qualité de l'air Non disponible.
Flu Activity Non disponible.
METAR KBLF 300952Z AUTO 30012G20KT 4SM -SN BKN010 BKN014 OVC026 M02/M05 A3004 RMK AO2 PK WND 31029/0936 SNE39B47 SLP176 P0000 T10171050

More Conditions Fewer Conditions

Pression 30.05 pouce
Visibilité 4.0 Miles terrestres
Nuages Nuageux 1000 ft
Nuageux 1400 ft
Couvert 2600 ft
Refroidissement éolien 18 ° F
Point de rosée 23 ° F
Humidité 78%
Précipitations 0.00 pouce
Profondeur de la couche neigeuse Non disponible.
UV 0 sur 12
Pollen .30 sur 12
Qualité de l'air Non disponible.
Flu Activity Non disponible.
METAR KBLF 300952Z AUTO 30012G20KT 4SM -SN BKN010 BKN014 OVC026 M02/M05 A3004 RMK AO2 PK WND 31029/0936 SNE39B47 SLP176 P0000 T10171050

More Conditions Fewer Conditions

10-Day Weather Forecast

Almanac

Astronomie

Jan. 30, 2015 Lever Coucher
Temps réel
Crépuscule civil
Crépuscule nautique
Crépuscule astronomique
Lune
Durée de lumière visible
Longueur du jour
Tomorrow will be .
, % of the Moon is Illuminated

Extrêmes aujourd'hui

State Highs State Lows

Community

WunderPhotos

Upload Photos

1,791,736 Photos téléchargées !

WunderBlogs® & News

Nearby

Qualité de l'air

  Qualité de l'air Indice de la qualité de l'air Polluant
Not available.

Épaisseur de neige

Station Depth Altitude

Activité sismique

Ville Distance Mag. Time & Date
Minimum magnitude displayed is 2.5.

Températures des eaux côtières

Lieu Température

Stations météo à proximité